Time;durP1;ratioP1;P1;durP2;ratioP2;P2;SDS_P1;SDS_P2;PMS_P1;PMS_P2;Temp;Humidity;BMP_temperature;BMP_pressure;BME280_temperature;BME280_humidity;BME280_pressure;Samples;Min_cycle;Max_cycle;Signal;HPM_P1;HPM_P2
2021/07/23 00:02:25;;;;;;;10.73;6.60;;;17.90;99.90;;;;;;5074045;28;20024;-90
2021/07/23 00:04:51;;;;;;;7.80;6.90;;;17.90;99.90;;;;;;5075399;28;20031;-89
2021/07/23 00:07:17;;;;;;;8.95;7.53;;;17.90;99.90;;;;;;5074004;28;20059;-90
2021/07/23 00:09:43;;;;;;;9.02;7.05;;;18.00;99.90;;;;;;5073877;28;20090;-88
2021/07/23 00:12:09;;;;;;;7.45;6.75;;;18.00;99.90;;;;;;5073337;28;20021;-90
2021/07/23 00:14:34;;;;;;;8.65;7.10;;;18.00;99.90;;;;;;5073621;28;20036;-89
2021/07/23 00:17:01;;;;;;;8.00;6.72;;;18.00;99.90;;;;;;5073668;28;20020;-88
2021/07/23 00:19:27;;;;;;;9.30;7.30;;;18.00;99.90;;;;;;5073459;28;20025;-90
2021/07/23 00:21:53;;;;;;;13.10;7.28;;;17.90;99.90;;;;;;5073460;28;20074;-89
2021/07/23 00:24:19;;;;;;;11.57;7.32;;;17.90;99.90;;;;;;5073429;28;20025;-90
2021/07/23 00:26:52;;;;;;;12.13;6.80;;;17.90;99.90;;;;;;5073412;28;20463;-88
2021/07/23 00:29:19;;;;;;;11.70;7.18;;;18.00;99.90;;;;;;5073483;28;20037;-89
2021/07/23 00:31:45;;;;;;;13.30;7.00;;;17.90;99.90;;;;;;5073309;28;20024;-89
2021/07/23 00:34:10;;;;;;;8.05;6.70;;;17.90;99.90;;;;;;5073212;28;20028;-90
2021/07/23 00:36:36;;;;;;;9.60;6.90;;;17.90;99.90;;;;;;5073324;28;20113;-89
2021/07/23 00:39:02;;;;;;;7.90;6.70;;;17.90;99.90;;;;;;5073176;28;20507;-89
2021/07/23 00:41:27;;;;;;;9.00;7.22;;;17.90;99.90;;;;;;5073253;28;20032;-90
2021/07/23 00:43:53;;;;;;;8.82;6.63;;;17.80;99.90;;;;;;5073139;28;20028;-90
2021/07/23 00:46:19;;;;;;;6.85;6.18;;;17.80;99.90;;;;;;5074321;28;20075;-90
2021/07/23 00:48:45;;;;;;;9.40;6.53;;;17.70;99.90;;;;;;5073122;28;20476;-91
2021/07/23 00:51:11;;;;;;;9.90;7.65;;;17.60;99.90;;;;;;5073142;28;20123;-89
2021/07/23 00:53:37;;;;;;;10.77;7.75;;;17.60;99.90;;;;;;5073015;28;20434;-89
2021/07/23 00:56:03;;;;;;;11.77;7.57;;;17.60;99.90;;;;;;5072917;28;20044;-90
2021/07/23 00:58:30;;;;;;;9.13;7.32;;;17.50;99.90;;;;;;5073064;28;20024;-91
2021/07/23 01:00:58;;;;;;;7.00;6.32;;;17.50;99.90;;;;;;5072858;28;20131;-90
2021/07/23 01:03:24;;;;;;;7.60;6.78;;;17.50;99.90;;;;;;5073156;28;20092;-90
2021/07/23 01:05:52;;;;;;;8.70;6.55;;;17.40;99.90;;;;;;5073155;28;20048;-89
2021/07/23 01:08:18;;;;;;;9.02;6.32;;;17.40;99.90;;;;;;5072891;28;20040;-91
2021/07/23 01:10:44;;;;;;;8.25;6.55;;;17.40;99.90;;;;;;5075332;28;20028;-89
2021/07/23 01:13:11;;;;;;;8.00;6.40;;;17.40;99.90;;;;;;5077156;28;20031;-89
2021/07/23 01:15:37;;;;;;;7.45;6.25;;;17.50;99.90;;;;;;5077307;28;20081;-91
2021/07/23 01:18:03;;;;;;;10.52;7.07;;;17.50;99.90;;;;;;5077264;28;20463;-89
2021/07/23 01:20:29;;;;;;;8.85;6.68;;;17.50;99.90;;;;;;5077191;28;20020;-88
2021/07/23 01:22:58;;;;;;;9.63;6.72;;;17.50;99.90;;;;;;5076978;28;20032;-87
2021/07/23 01:25:24;;;;;;;9.73;7.13;;;17.50;99.90;;;;;;5076869;28;20464;-89
2021/07/23 01:27:51;;;;;;;7.68;6.82;;;17.40;99.90;;;;;;5077583;28;20487;-89
2021/07/23 01:30:26;;;;;;;7.32;6.57;;;17.40;99.90;;;;;;5076720;28;20042;-91
2021/07/23 01:32:53;;;;;;;8.65;6.88;;;17.50;99.90;;;;;;5076520;28;20021;-91
2021/07/23 01:35:22;;;;;;;7.72;6.93;;;17.50;99.90;;;;;;5076590;28;20476;-89
2021/07/23 01:37:48;;;;;;;8.23;6.43;;;17.50;99.90;;;;;;5076559;28;20024;-91
2021/07/23 01:40:14;;;;;;;9.45;6.53;;;17.50;99.90;;;;;;5076674;28;20406;-88
2021/07/23 01:42:42;;;;;;;8.38;6.97;;;17.50;99.90;;;;;;5076208;28;20021;-90
2021/07/23 01:45:08;;;;;;;7.07;6.38;;;17.50;99.90;;;;;;5076835;28;20421;-91
2021/07/23 01:47:34;;;;;;;9.52;7.68;;;17.40;99.90;;;;;;5076497;28;20016;-91
2021/07/23 01:50:00;;;;;;;18.58;11.40;;;17.30;99.90;;;;;;5076322;28;20131;-89
2021/07/23 01:52:26;;;;;;;29.25;26.10;;;17.30;99.90;;;;;;5076280;28;20017;-89
2021/07/23 01:54:51;;;;;;;11.23;9.90;;;17.40;99.90;;;;;;5076479;28;20021;-90
2021/07/23 01:57:17;;;;;;;10.07;8.02;;;17.40;99.90;;;;;;5076399;28;20052;-92
2021/07/23 01:59:43;;;;;;;8.93;7.80;;;17.40;99.90;;;;;;5075905;28;20080;-90
2021/07/23 02:02:09;;;;;;;11.00;8.27;;;17.30;99.90;;;;;;5075772;28;20108;-89
2021/07/23 02:04:35;;;;;;;9.30;7.85;;;17.30;99.90;;;;;;5076219;28;20021;-90
2021/07/23 02:07:01;;;;;;;9.77;8.00;;;17.20;99.90;;;;;;5075858;28;20112;-88
2021/07/23 02:09:26;;;;;;;10.38;8.25;;;17.20;99.90;;;;;;5076241;28;20123;-92
2021/07/23 02:11:52;;;;;;;8.98;7.68;;;17.20;99.90;;;;;;5075950;28;20118;-91
2021/07/23 02:14:18;;;;;;;8.15;6.97;;;17.20;99.90;;;;;;5075826;28;20028;-90
2021/07/23 02:16:43;;;;;;;10.10;7.10;;;17.20;99.90;;;;;;5076058;28;20520;-90
2021/07/23 02:19:09;;;;;;;8.82;7.95;;;17.10;99.90;;;;;;5075807;28;20029;-90
2021/07/23 02:21:35;;;;;;;8.95;7.35;;;17.00;99.90;;;;;;5075219;28;20024;-90
2021/07/23 02:24:02;;;;;;;10.63;7.65;;;16.90;99.90;;;;;;5075649;28;20024;-88
2021/07/23 02:26:28;;;;;;;8.85;7.03;;;16.80;99.90;;;;;;5075790;28;20396;-91
2021/07/23 02:28:54;;;;;;;10.40;8.25;;;16.80;99.90;;;;;;5075985;28;20032;-89
2021/07/23 02:31:19;;;;;;;12.00;8.82;;;16.70;99.90;;;;;;5075732;28;20021;-87
2021/07/23 02:33:46;;;;;;;21.33;15.75;;;16.80;99.90;;;;;;5075951;28;20025;-90
2021/07/23 02:36:13;;;;;;;11.48;8.80;;;16.80;99.90;;;;;;5076189;28;20025;-89
2021/07/23 02:38:38;;;;;;;11.27;7.65;;;16.90;99.90;;;;;;5075594;28;20025;-88
2021/07/23 02:41:04;;;;;;;9.40;7.45;;;16.90;99.90;;;;;;5075379;28;20434;-91
2021/07/23 02:43:30;;;;;;;9.30;7.78;;;16.90;99.90;;;;;;5075431;28;20047;-91
2021/07/23 02:45:56;;;;;;;46.97;32.33;;;16.90;99.90;;;;;;5075438;28;20383;-92
2021/07/23 02:48:22;;;;;;;171.85;112.97;;;16.90;99.90;;;;;;5075200;28;20051;-87
2021/07/23 02:50:47;;;;;;;104.80;70.80;;;16.90;99.90;;;;;;5075260;28;20054;-90
2021/07/23 02:53:13;;;;;;;18.27;11.10;;;16.90;99.90;;;;;;5075325;28;20025;-90
2021/07/23 02:55:39;;;;;;;11.00;8.23;;;16.80;99.90;;;;;;5075295;28;20134;-88
2021/07/23 02:58:05;;;;;;;9.63;7.68;;;16.80;99.90;;;;;;5075394;28;20428;-90
2021/07/23 03:00:31;;;;;;;12.23;8.05;;;16.70;99.90;;;;;;5074718;28;20055;-89
2021/07/23 03:02:56;;;;;;;12.27;9.55;;;16.70;99.90;;;;;;5074954;28;20071;-89
2021/07/23 03:05:22;;;;;;;10.90;7.88;;;16.70;99.90;;;;;;5075054;28;20376;-88
2021/07/23 03:07:54;;;;;;;9.82;8.07;;;16.60;99.90;;;;;;5074884;28;20029;-90
2021/07/23 03:10:20;;;;;;;10.13;7.75;;;16.50;99.90;;;;;;5075062;28;20514;-90
2021/07/23 03:12:45;;;;;;;8.55;7.00;;;16.50;99.90;;;;;;5074839;28;20020;-90
2021/07/23 03:15:12;;;;;;;10.70;8.05;;;16.50;99.90;;;;;;5076040;28;20028;-89
2021/07/23 03:17:38;;;;;;;12.27;8.60;;;16.50;99.90;;;;;;5074791;28;20500;-89
2021/07/23 03:20:05;;;;;;;13.45;9.38;;;16.40;99.90;;;;;;5075118;28;20075;-90
2021/07/23 03:22:30;;;;;;;12.15;8.57;;;16.50;99.90;;;;;;5074687;28;20021;-90
2021/07/23 03:24:56;;;;;;;10.75;7.95;;;16.50;99.90;;;;;;5074498;28;20078;-91
2021/07/23 03:27:23;;;;;;;11.32;8.38;;;16.50;99.90;;;;;;5074502;28;20032;-90
2021/07/23 03:29:48;;;;;;;9.68;7.05;;;16.50;99.90;;;;;;5074508;28;20071;-89
2021/07/23 03:32:14;;;;;;;12.63;8.38;;;16.40;99.90;;;;;;5074979;28;20443;-91
2021/07/23 03:34:40;;;;;;;23.90;17.52;;;16.40;99.90;;;;;;5074208;28;20025;-89
2021/07/23 03:37:06;;;;;;;29.90;21.25;;;16.40;99.90;;;;;;5074436;28;20024;-89
2021/07/23 03:39:31;;;;;;;22.98;17.15;;;16.40;99.90;;;;;;5074523;28;20027;-87
2021/07/23 03:41:57;;;;;;;12.93;9.80;;;16.30;99.90;;;;;;5074512;28;20025;-89
2021/07/23 03:44:23;;;;;;;11.82;8.25;;;16.30;99.90;;;;;;5074626;28;20028;-92
2021/07/23 03:46:48;;;;;;;8.50;7.55;;;16.40;99.90;;;;;;5074512;28;20036;-90
2021/07/23 03:49:14;;;;;;;12.43;7.93;;;16.30;99.90;;;;;;5074363;28;20060;-88
2021/07/23 03:51:40;;;;;;;17.50;11.57;;;16.30;99.90;;;;;;5074303;28;20017;-90
2021/07/23 03:54:06;;;;;;;20.40;13.02;;;16.40;99.90;;;;;;5075214;28;20063;-91
2021/07/23 03:56:32;;;;;;;12.75;8.45;;;16.40;99.90;;;;;;5073934;28;20060;-90
2021/07/23 03:58:59;;;;;;;11.15;9.95;;;16.40;99.90;;;;;;5073782;28;20423;-91
2021/07/23 04:01:24;;;;;;;10.57;8.02;;;16.40;99.90;;;;;;5074060;28;20036;-87
2021/07/23 04:03:50;;;;;;;10.57;7.43;;;16.40;99.90;;;;;;5073952;28;20541;-91
2021/07/23 04:06:16;;;;;;;9.00;8.10;;;16.50;99.90;;;;;;5073779;28;20103;-91
2021/07/23 04:08:41;;;;;;;11.23;8.18;;;16.50;99.90;;;;;;5073728;28;20127;-90
2021/07/23 04:11:14;;;;;;;9.70;7.63;;;16.60;99.90;;;;;;5074873;28;20446;-90
2021/07/23 04:13:41;;;;;;;13.15;7.63;;;16.60;99.90;;;;;;5073967;28;20036;-90
2021/07/23 04:16:06;;;;;;;8.65;7.65;;;16.70;99.90;;;;;;5073752;28;20115;-91
2021/07/23 04:18:32;;;;;;;10.50;7.38;;;16.80;99.90;;;;;;5075618;28;20063;-88
2021/07/23 04:20:58;;;;;;;9.90;6.13;;;16.80;99.90;;;;;;5073700;28;20025;-88
2021/07/23 04:23:23;;;;;;;10.18;6.57;;;17.30;99.90;;;;;;5073829;28;20039;-88
2021/07/23 04:25:49;;;;;;;7.53;6.53;;;19.10;99.90;;;;;;5078208;28;20582;-86
2021/07/23 04:28:15;;;;;;;7.30;6.15;;;19.90;99.90;;;;;;5073661;28;20036;-83
2021/07/23 04:30:40;;;;;;;8.43;5.95;;;20.30;99.90;;;;;;5077007;28;20031;-90
2021/07/23 04:33:06;;;;;;;7.55;6.00;;;20.70;99.90;;;;;;5074047;28;20394;-90
2021/07/23 04:35:31;;;;;;;8.38;6.00;;;20.40;99.90;;;;;;5073452;28;20052;-89
2021/07/23 04:37:57;;;;;;;7.18;6.30;;;20.20;99.90;;;;;;5073121;28;20029;-90
2021/07/23 04:40:23;;;;;;;8.93;6.25;;;20.00;99.90;;;;;;5073376;28;20021;-90
2021/07/23 04:42:48;;;;;;;7.32;6.15;;;20.10;99.90;;;;;;5073176;28;20093;-89
2021/07/23 04:45:14;;;;;;;9.30;7.03;;;20.30;99.90;;;;;;5073503;28;20020;-90
2021/07/23 04:47:40;;;;;;;9.35;6.88;;;20.20;99.90;;;;;;5074067;28;20029;-90
2021/07/23 04:50:06;;;;;;;11.48;7.90;;;20.30;99.90;;;;;;5074887;28;20033;-89
2021/07/23 04:52:32;;;;;;;10.30;7.22;;;20.10;99.90;;;;;;5076445;28;20119;-88
2021/07/23 04:54:59;;;;;;;8.82;7.03;;;20.20;99.90;;;;;;5078117;28;20063;-90
2021/07/23 04:57:29;;;;;;;10.05;7.38;;;20.00;99.90;;;;;;5075337;28;20051;-90
2021/07/23 04:59:54;;;;;;;10.02;7.07;;;20.00;99.90;;;;;;5076040;28;20053;-87
2021/07/23 05:02:20;;;;;;;9.63;7.03;;;19.70;99.90;;;;;;5077326;28;20024;-88
2021/07/23 05:04:46;;;;;;;9.80;6.40;;;19.70;99.90;;;;;;5082374;28;20035;-89
2021/07/23 05:07:12;;;;;;;7.68;6.45;;;19.40;99.90;;;;;;5077805;28;20427;-90
2021/07/23 05:09:38;;;;;;;12.73;7.47;;;19.00;99.90;;;;;;5078146;28;20037;-88
2021/07/23 05:12:05;;;;;;;9.07;6.68;;;19.00;99.90;;;;;;5075735;28;20021;-88
2021/07/23 05:14:31;;;;;;;14.27;10.70;;;19.20;99.90;;;;;;5079004;28;20031;-87
2021/07/23 05:16:58;;;;;;;14.80;8.43;;;19.30;99.90;;;;;;5076949;28;20088;-86
2021/07/23 05:19:24;;;;;;;11.75;8.00;;;19.30;99.90;;;;;;5072840;28;20021;-83
2021/07/23 05:21:50;;;;;;;9.07;7.05;;;19.30;99.90;;;;;;5072529;28;20020;-81
2021/07/23 05:24:16;;;;;;;9.35;7.50;;;19.50;99.90;;;;;;5072685;28;20031;-81
2021/07/23 05:26:42;;;;;;;13.38;8.20;;;19.90;99.90;;;;;;5072796;28;20025;-81
2021/07/23 05:29:08;;;;;;;8.65;7.75;;;20.00;99.90;;;;;;5072632;28;20048;-81
2021/07/23 05:31:40;;;;;;;10.52;8.05;;;19.80;99.90;;;;;;5072729;28;20016;-81
2021/07/23 05:34:05;;;;;;;12.15;8.52;;;19.60;99.90;;;;;;5072512;28;20031;-82
2021/07/23 05:36:31;;;;;;;8.57;7.70;;;19.80;99.90;;;;;;5072464;28;20017;-80
2021/07/23 05:38:57;;;;;;;12.05;7.97;;;20.20;99.90;;;;;;5072714;28;20078;-80
2021/07/23 05:41:22;;;;;;;11.25;8.30;;;20.40;99.90;;;;;;5072498;28;20463;-79
2021/07/23 05:43:48;;;;;;;9.57;7.18;;;20.50;99.90;;;;;;5072109;28;20460;-79
2021/07/23 05:46:15;;;;;;;8.63;7.72;;;20.50;99.90;;;;;;5071692;28;20024;-79
2021/07/23 05:48:41;;;;;;;11.07;7.95;;;20.60;99.90;;;;;;5071993;28;20033;-78
2021/07/23 05:51:08;;;;;;;19.45;7.65;;;20.60;99.90;;;;;;5072095;28;20024;-78
2021/07/23 05:53:34;;;;;;;15.75;7.47;;;20.80;99.90;;;;;;5071816;28;20025;-79
2021/07/23 05:56:01;;;;;;;13.07;7.72;;;21.00;99.60;;;;;;5072723;28;20025;-84
2021/07/23 05:58:27;;;;;;;10.85;7.20;;;20.90;99.40;;;;;;5075770;28;20021;-79
2021/07/23 06:00:54;;;;;;;11.18;7.65;;;21.00;99.10;;;;;;5075947;28;20100;-83
2021/07/23 06:03:19;;;;;;;9.40;6.93;;;20.90;99.10;;;;;;5075591;28;20056;-78
2021/07/23 06:05:45;;;;;;;9.10;7.85;;;20.90;99.30;;;;;;5075742;28;20048;-83
2021/07/23 06:08:11;;;;;;;8.18;7.00;;;21.00;99.10;;;;;;5075737;28;20025;-84
2021/07/23 06:10:36;;;;;;;9.18;6.80;;;21.10;98.90;;;;;;5075667;28;20086;-79
2021/07/23 06:13:02;;;;;;;10.75;7.82;;;21.40;98.00;;;;;;5075923;28;20078;-78
2021/07/23 06:15:28;;;;;;;10.75;7.30;;;21.60;97.10;;;;;;5074356;28;20035;-79
2021/07/23 06:17:54;;;;;;;10.38;7.22;;;21.70;97.00;;;;;;5075153;28;20020;-77
2021/07/23 06:20:20;;;;;;;9.93;6.88;;;22.00;96.70;;;;;;5075018;28;20074;-77
2021/07/23 06:22:46;;;;;;;8.68;6.60;;;22.10;95.90;;;;;;5075179;28;20128;-77
2021/07/23 06:25:12;;;;;;;9.57;6.15;;;22.20;95.10;;;;;;5075096;28;20020;-79
2021/07/23 06:27:37;;;;;;;7.53;6.45;;;22.30;94.70;;;;;;5093420;28;20028;-85
2021/07/23 06:30:04;;;;;;;9.63;6.53;;;22.50;94.10;;;;;;5093966;28;20043;-79
2021/07/23 06:32:31;;;;;;;7.93;5.90;;;22.60;92.60;;;;;;5093612;28;20433;-79
2021/07/23 06:34:58;;;;;;;6.72;5.63;;;22.80;91.70;;;;;;5093837;28;20023;-78
2021/07/23 06:37:25;;;;;;;9.10;5.22;;;23.00;90.80;;;;;;5094410;28;20039;-78
2021/07/23 06:39:51;;;;;;;7.93;5.15;;;23.10;87.20;;;;;;5094217;28;20078;-77
2021/07/23 06:42:18;;;;;;;5.82;4.95;;;23.00;84.10;;;;;;5094754;28;20023;-85
2021/07/23 06:44:43;;;;;;;7.35;5.15;;;22.90;82.90;;;;;;5095690;28;20540;-85
2021/07/23 06:47:09;;;;;;;7.03;4.88;;;22.80;85.00;;;;;;5095723;28;20020;-82
2021/07/23 06:49:35;;;;;;;8.82;5.75;;;22.90;84.60;;;;;;5095451;28;20032;-81
2021/07/23 06:52:03;;;;;;;9.07;5.18;;;22.50;84.40;;;;;;5095467;28;20087;-82
2021/07/23 06:54:29;;;;;;;6.45;5.50;;;22.60;85.60;;;;;;5095182;28;20020;-82
2021/07/23 06:56:55;;;;;;;8.95;5.93;;;22.70;84.30;;;;;;5096472;28;20387;-85
2021/07/23 06:59:21;;;;;;;8.27;5.55;;;22.80;82.90;;;;;;5095070;28;20379;-83
2021/07/23 07:01:47;;;;;;;8.48;4.97;;;22.80;82.20;;;;;;5096064;28;20025;-81
2021/07/23 07:04:12;;;;;;;13.23;5.50;;;23.00;81.50;;;;;;5095317;28;20032;-84
2021/07/23 07:06:38;;;;;;;10.60;5.57;;;23.10;81.70;;;;;;5094662;28;20088;-82
2021/07/23 07:09:04;;;;;;;9.73;4.88;;;23.40;79.00;;;;;;5094015;28;20095;-81
2021/07/23 07:11:30;;;;;;;10.75;4.95;;;23.50;77.40;;;;;;5094849;28;20103;-81
2021/07/23 07:13:55;;;;;;;7.35;4.80;;;23.70;77.30;;;;;;5096004;28;20027;-80
2021/07/23 07:16:21;;;;;;;5.72;4.88;;;23.80;75.20;;;;;;5094852;28;20032;-79
2021/07/23 07:18:47;;;;;;;8.35;4.80;;;23.90;73.20;;;;;;5094943;28;20024;-81
2021/07/23 07:21:14;;;;;;;5.97;4.88;;;24.10;72.20;;;;;;5093936;28;20051;-76
2021/07/23 07:23:43;;;;;;;8.77;5.05;;;24.20;72.80;;;;;;5094388;28;20020;-77
2021/07/23 07:26:12;;;;;;;9.80;4.75;;;24.30;72.30;;;;;;5094391;28;20064;-77
2021/07/23 07:28:38;;;;;;;8.40;4.60;;;24.30;69.70;;;;;;5094212;28;20055;-78
2021/07/23 07:31:04;;;;;;;7.75;4.38;;;24.40;69.20;;;;;;5093928;28;20379;-77
2021/07/23 07:33:31;;;;;;;6.22;4.70;;;24.60;67.90;;;;;;5094044;28;20052;-79
2021/07/23 07:35:57;;;;;;;7.90;4.75;;;24.70;66.50;;;;;;5094103;28;20031;-78
2021/07/23 07:38:23;;;;;;;9.00;5.15;;;24.80;66.20;;;;;;5093914;28;20077;-79
2021/07/23 07:40:49;;;;;;;6.60;4.57;;;25.00;64.60;;;;;;5094253;28;20024;-81
2021/07/23 07:43:14;;;;;;;8.57;4.43;;;25.00;64.20;;;;;;5095210;28;20036;-79
2021/07/23 07:45:40;;;;;;;11.00;4.60;;;24.90;61.90;;;;;;5093994;28;20051;-79
2021/07/23 07:48:06;;;;;;;6.78;4.80;;;24.90;62.60;;;;;;5095015;28;20027;-79
2021/07/23 07:50:32;;;;;;;24.10;4.88;;;24.90;63.00;;;;;;5093676;28;20035;-79
2021/07/23 07:52:58;;;;;;;8.18;4.50;;;24.90;63.50;;;;;;5093923;28;20024;-80
2021/07/23 07:55:23;;;;;;;7.32;4.75;;;25.00;62.70;;;;;;5093792;28;20387;-80
2021/07/23 07:57:49;;;;;;;33.85;5.68;;;24.90;62.50;;;;;;5093938;28;20387;-80
2021/07/23 08:00:15;;;;;;;19.10;5.28;;;24.80;63.40;;;;;;5093628;28;20193;-79
2021/07/23 08:02:41;;;;;;;10.52;4.38;;;24.80;64.30;;;;;;5093800;28;20024;-79
2021/07/23 08:05:07;;;;;;;7.63;4.45;;;24.90;60.70;;;;;;5093776;28;20429;-84
2021/07/23 08:07:34;;;;;;;8.55;4.90;;;25.00;64.20;;;;;;5093820;28;20044;-80
2021/07/23 08:10:02;;;;;;;7.47;4.50;;;25.00;64.10;;;;;;5093995;28;20035;-82
2021/07/23 08:12:29;;;;;;;11.23;4.60;;;25.10;63.50;;;;;;5093662;28;20073;-82
2021/07/23 08:14:56;;;;;;;10.07;4.82;;;25.10;63.10;;;;;;5093369;28;20536;-81
2021/07/23 08:17:22;;;;;;;8.05;4.82;;;25.10;63.90;;;;;;5093217;28;20028;-80
2021/07/23 08:19:47;;;;;;;9.50;5.00;;;25.20;61.80;;;;;;5093328;28;20459;-80
2021/07/23 08:22:13;;;;;;;6.15;4.40;;;25.30;62.90;;;;;;5093588;28;20035;-86
2021/07/23 08:24:39;;;;;;;9.35;4.55;;;25.40;63.30;;;;;;5093843;28;20063;-82
2021/07/23 08:27:04;;;;;;;6.18;4.57;;;25.60;64.10;;;;;;5093384;28;20058;-81
2021/07/23 08:29:30;;;;;;;9.80;4.65;;;25.60;61.70;;;;;;5092881;28;20035;-78
2021/07/23 08:32:10;;;;;;;7.57;4.85;;;25.70;62.50;;;;;;5093107;28;20052;-85
2021/07/23 08:34:36;;;;;;;10.40;4.72;;;26.00;62.80;;;;;;5093820;28;20027;-78
2021/07/23 08:37:02;;;;;;;8.27;4.72;;;26.20;61.70;;;;;;5093382;28;20025;-81
2021/07/23 08:39:27;;;;;;;5.00;4.47;;;26.30;59.80;;;;;;5093323;28;20020;-80
2021/07/23 08:41:53;;;;;;;9.52;4.75;;;26.30;59.90;;;;;;5093318;28;20024;-81
2021/07/23 08:44:19;;;;;;;8.23;4.68;;;26.30;60.30;;;;;;5092972;28;20062;-80
2021/07/23 08:46:44;;;;;;;7.65;4.50;;;26.40;60.80;;;;;;5093073;28;20395;-81
2021/07/23 08:49:10;;;;;;;7.97;4.95;;;26.50;59.70;;;;;;5093083;28;20039;-80
2021/07/23 08:51:36;;;;;;;7.68;4.32;;;26.40;59.40;;;;;;5093127;28;20024;-81
2021/07/23 08:54:05;;;;;;;6.07;4.40;;;26.40;58.50;;;;;;5093196;28;20024;-80
2021/07/23 08:56:31;;;;;;;14.18;5.10;;;26.40;60.10;;;;;;5093106;28;20605;-82
2021/07/23 08:58:56;;;;;;;10.38;4.70;;;26.40;60.40;;;;;;5092764;28;20110;-81
2021/07/23 09:01:22;;;;;;;8.80;4.68;;;26.60;60.00;;;;;;5092806;28;20059;-80
2021/07/23 09:03:48;;;;;;;8.63;4.60;;;26.70;60.20;;;;;;5093011;28;20031;-81
2021/07/23 09:06:17;;;;;;;7.70;4.60;;;26.70;59.10;;;;;;5094067;28;20387;-82
2021/07/23 09:08:53;;;;;;;11.15;4.40;;;26.70;59.40;;;;;;5092396;28;20089;-76
2021/07/23 09:11:27;;;;;;;;;;;26.90;60.70;;;;;;5092465;28;20024;-76
2021/07/23 09:14:13;;;;;;;7.05;4.07;;;26.90;58.70;;;;;;5092871;28;19962;-79
2021/07/23 09:16:39;;;;;;;5.05;4.32;;;26.80;58.20;;;;;;5093232;28;20471;-77
2021/07/23 09:19:06;;;;;;;6.75;4.32;;;26.70;58.40;;;;;;5092351;28;20028;-76
2021/07/23 09:21:38;;;;;;;12.38;4.45;;;26.40;59.30;;;;;;5092342;28;20092;-79
2021/07/23 09:24:08;;;;;;;5.22;4.35;;;26.40;60.60;;;;;;5092221;28;20024;-82
2021/07/23 09:26:42;;;;;;;4.78;4.03;;;26.40;58.70;;;;;;5091923;28;20043;-78
2021/07/23 09:29:08;;;;;;;6.93;3.97;;;26.50;57.40;;;;;;5091765;28;20036;-87
2021/07/23 09:31:34;;;;;;;21.00;4.47;;;26.40;58.20;;;;;;5093701;28;20340;-77
2021/07/23 09:34:00;;;;;;;7.28;4.22;;;26.30;59.50;;;;;;5096475;28;20115;-78
2021/07/23 09:36:28;;;;;;;5.07;3.88;;;26.20;58.60;;;;;;5096229;28;20017;-77
2021/07/23 09:39:04;;;;;;;6.75;3.85;;;26.30;60.30;;;;;;5096114;28;20024;-78
2021/07/23 09:41:31;;;;;;;6.88;3.60;;;26.30;58.90;;;;;;5096200;28;20020;-78
2021/07/23 09:44:08;;;;;;;8.55;4.00;;;26.40;59.70;;;;;;5096178;28;20020;-78
2021/07/23 09:46:39;;;;;;;11.88;3.55;;;26.60;59.60;;;;;;5096408;28;20050;-77
2021/07/23 09:49:22;;;;;;;4.03;3.40;;;26.70;57.70;;;;;;5095883;28;20545;-78
2021/07/23 09:51:51;;;;;;;6.57;4.03;;;26.70;57.70;;;;;;5097323;28;20024;-79
2021/07/23 09:54:20;;;;;;;4.95;3.88;;;26.80;57.40;;;;;;5095826;28;20111;-78
2021/07/23 09:56:48;;;;;;;6.57;4.10;;;26.90;59.00;;;;;;5097255;28;20024;-76
2021/07/23 10:00:06;;;;;;;5.47;3.67;;;27.00;58.80;;;;;;5096782;28;20032;-87
2021/07/23 10:02:37;;;;;;;8.98;3.70;;;27.10;58.00;;;;;;5082413;28;20064;-76
2021/07/23 10:05:08;;;;;;;5.88;3.50;;;27.20;57.10;;;;;;5095565;28;20024;-79
2021/07/23 10:07:39;;;;;;;7.20;3.95;;;27.10;56.60;;;;;;5095602;28;20020;-85
2021/07/23 10:10:10;;;;;;;8.15;3.75;;;27.10;56.80;;;;;;5095788;28;20043;-87
2021/07/23 10:12:37;;;;;;;9.23;3.80;;;27.20;57.20;;;;;;5096111;28;20062;-88
2021/07/23 10:15:03;;;;;;;5.55;4.22;;;27.20;56.80;;;;;;5096033;28;20020;-87
2021/07/23 10:17:30;;;;;;;9.85;4.63;;;27.30;57.30;;;;;;5096843;28;20020;-78
2021/07/23 10:19:57;;;;;;;6.82;4.28;;;27.30;56.70;;;;;;5095835;28;20044;-86
2021/07/23 10:22:26;;;;;;;7.78;4.57;;;27.30;57.20;;;;;;5095787;28;20025;-86
2021/07/23 10:24:52;;;;;;;5.72;4.30;;;27.30;59.00;;;;;;5097096;28;20502;-78
2021/07/23 10:27:22;;;;;;;6.60;4.53;;;27.50;58.60;;;;;;5095660;28;20372;-80
2021/07/23 10:29:51;;;;;;;7.43;4.07;;;27.50;56.70;;;;;;5095412;28;20036;-82
2021/07/23 10:32:37;;;;;;;11.07;4.75;;;27.40;57.50;;;;;;5091193;28;20383;-79
2021/07/23 10:35:15;;;;;;;6.15;4.25;;;27.60;58.30;;;;;;5095277;28;20040;-80
2021/07/23 10:37:43;;;;;;;8.20;4.45;;;27.50;57.00;;;;;;5095740;28;20024;-87
2021/07/23 10:40:09;;;;;;;6.35;4.10;;;27.40;57.40;;;;;;5095591;28;20146;-81
2021/07/23 10:42:39;;;;;;;6.53;4.30;;;27.50;58.90;;;;;;5095366;28;20066;-80
2021/07/23 10:45:41;;;;;;;8.35;4.45;;;27.60;59.20;;;;;;5095386;28;20051;-86
2021/07/23 10:48:07;;;;;;;6.78;4.22;;;27.80;59.10;;;;;;5095254;28;20024;-87
2021/07/23 10:50:39;;;;;;;8.93;4.50;;;27.90;58.70;;;;;;5095332;28;20035;-82
2021/07/23 10:53:31;;;;;;;8.63;4.60;;;27.80;57.90;;;;;;5095199;28;20435;-79
2021/07/23 10:55:57;;;;;;;7.18;5.28;;;27.90;60.30;;;;;;5095313;28;20027;-86
2021/07/23 10:58:30;;;;;;;10.18;5.32;;;28.00;58.60;;;;;;5095306;28;20020;-80
2021/07/23 11:01:01;;;;;;;7.07;4.95;;;27.90;58.20;;;;;;5094759;28;20387;-87
2021/07/23 11:03:42;;;;;;;10.60;5.18;;;27.90;58.40;;;;;;5095069;28;20466;-80
2021/07/23 11:06:28;;;;;;;11.27;5.13;;;28.00;57.90;;;;;;5096239;28;20051;-88
2021/07/23 11:09:04;;;;;;;11.10;5.07;;;27.70;58.40;;;;;;5094761;28;20036;-80
2021/07/23 11:11:30;;;;;;;7.78;4.50;;;27.70;58.40;;;;;;5094839;28;20424;-79
2021/07/23 11:14:13;;;;;;;7.05;5.55;;;27.90;58.30;;;;;;5094815;28;20032;-87
2021/07/23 11:16:39;;;;;;;11.30;5.22;;;28.00;59.00;;;;;;5094834;28;20028;-79
2021/07/23 11:19:05;;;;;;;7.97;5.25;;;28.10;59.10;;;;;;5094746;28;20020;-79
2021/07/23 11:21:35;;;;;;;6.65;5.70;;;28.10;59.90;;;;;;5094669;28;20024;-79
2021/07/23 11:24:19;;;;;;;5.70;5.10;;;27.90;57.70;;;;;;5094436;28;20016;-85
2021/07/23 11:26:51;;;;;;;12.63;5.72;;;27.80;59.20;;;;;;5094653;28;20032;-87
2021/07/23 11:29:30;;;;;;;8.23;5.43;;;28.00;60.20;;;;;;5094564;28;20468;-86
2021/07/23 11:32:09;;;;;;;7.03;5.90;;;28.10;59.20;;;;;;5094173;28;20109;-79
2021/07/23 11:34:38;;;;;;;7.80;6.03;;;28.30;58.20;;;;;;5094533;28;20016;-84
2021/07/23 11:37:26;;;;;;;9.48;5.63;;;28.40;58.50;;;;;;5094306;28;20058;-81
2021/07/23 11:39:57;;;;;;;8.43;5.60;;;28.40;58.90;;;;;;5095461;28;20049;-86
2021/07/23 11:42:24;;;;;;;8.73;5.85;;;28.50;58.10;;;;;;5094769;28;20902;-81
2021/07/23 11:44:55;;;;;;;11.18;6.20;;;28.50;56.70;;;;;;5092550;28;20025;-81
2021/07/23 11:47:43;;;;;;;8.82;6.60;;;28.30;56.00;;;;;;5092808;28;20024;-84
2021/07/23 11:50:11;;;;;;;7.65;5.82;;;28.20;58.40;;;;;;5092716;28;20051;-86
2021/07/23 11:52:37;;;;;;;6.85;5.80;;;28.30;60.10;;;;;;5092864;28;20031;-81
2021/07/23 11:55:05;;;;;;;6.90;6.20;;;28.30;59.80;;;;;;5093378;28;20440;-80
2021/07/23 11:57:41;;;;;;;8.68;5.97;;;28.40;60.00;;;;;;5094017;28;20031;-82
2021/07/23 12:00:23;;;;;;;9.88;6.00;;;28.60;58.10;;;;;;5091694;28;20072;-81
2021/07/23 12:02:51;;;;;;;7.25;5.65;;;28.60;59.30;;;;;;5092613;28;20024;-80
2021/07/23 12:05:18;;;;;;;7.10;5.78;;;28.70;57.40;;;;;;5092981;28;20028;-81
2021/07/23 12:07:56;;;;;;;9.15;6.20;;;28.80;56.60;;;;;;5092601;28;20020;-82
2021/07/23 12:10:22;;;;;;;8.93;6.20;;;28.60;55.10;;;;;;5092749;28;20127;-81
2021/07/23 12:12:48;;;;;;;14.23;5.85;;;28.30;55.30;;;;;;5092194;28;20028;-81
2021/07/23 12:15:14;;;;;;;7.43;5.75;;;28.50;58.50;;;;;;5092491;28;20020;-80
2021/07/23 12:17:44;;;;;;;9.20;6.05;;;28.60;58.00;;;;;;5092488;28;20478;-81
2021/07/23 12:20:12;;;;;;;8.02;5.72;;;28.90;59.10;;;;;;5092625;28;20115;-81
2021/07/23 12:22:38;;;;;;;8.40;5.60;;;29.10;58.40;;;;;;5092079;28;20475;-81
2021/07/23 12:25:17;;;;;;;11.38;6.13;;;29.10;57.10;;;;;;5092519;28;20165;-81
2021/07/23 12:27:44;;;;;;;7.35;5.60;;;28.80;57.30;;;;;;5092133;28;20038;-80
2021/07/23 12:30:11;;;;;;;7.55;5.63;;;28.70;57.60;;;;;;5093394;28;20174;-86
2021/07/23 12:32:37;;;;;;;11.40;5.72;;;28.40;57.80;;;;;;5092371;28;20050;-81
2021/07/23 12:35:03;;;;;;;6.50;5.20;;;28.10;59.00;;;;;;5092205;28;20031;-81
2021/07/23 12:37:30;;;;;;;8.80;5.80;;;28.00;59.70;;;;;;5092092;28;20032;-81
2021/07/23 12:39:57;;;;;;;7.88;5.97;;;28.00;60.40;;;;;;5092043;28;20016;-81
2021/07/23 12:42:24;;;;;;;7.95;6.15;;;28.00;60.40;;;;;;5091875;28;20060;-82
2021/07/23 12:44:51;;;;;;;9.70;6.00;;;28.00;60.50;;;;;;5092165;28;20379;-82
2021/07/23 12:47:27;;;;;;;7.78;5.95;;;28.00;60.10;;;;;;5091940;28;20494;-81